sensor_id;sensor_type;location;lat;lon;timestamp;temperature;humidity
7666;DHT22;3875;46.562;4.898;2022-10-28T00:00:31;18.60;88.90
7666;DHT22;3875;46.562;4.898;2022-10-28T00:02:59;18.60;88.90
7666;DHT22;3875;46.562;4.898;2022-10-28T00:05:26;18.60;88.90
7666;DHT22;3875;46.562;4.898;2022-10-28T00:07:52;18.60;88.90
7666;DHT22;3875;46.562;4.898;2022-10-28T00:10:18;18.60;88.90
7666;DHT22;3875;46.562;4.898;2022-10-28T00:12:43;18.60;88.80
7666;DHT22;3875;46.562;4.898;2022-10-28T00:15:09;18.50;88.90
7666;DHT22;3875;46.562;4.898;2022-10-28T00:17:35;18.50;88.90
7666;DHT22;3875;46.562;4.898;2022-10-28T00:20:00;18.50;88.80
7666;DHT22;3875;46.562;4.898;2022-10-28T00:22:26;18.50;88.80
7666;DHT22;3875;46.562;4.898;2022-10-28T00:24:52;18.50;88.70
7666;DHT22;3875;46.562;4.898;2022-10-28T00:27:18;18.60;88.70
7666;DHT22;3875;46.562;4.898;2022-10-28T00:29:43;18.60;88.50
7666;DHT22;3875;46.562;4.898;2022-10-28T00:32:09;18.60;88.40
7666;DHT22;3875;46.562;4.898;2022-10-28T00:34:35;18.60;88.40
7666;DHT22;3875;46.562;4.898;2022-10-28T00:37:00;18.60;88.20
7666;DHT22;3875;46.562;4.898;2022-10-28T00:39:26;18.60;88.20
7666;DHT22;3875;46.562;4.898;2022-10-28T00:41:57;18.60;88.40
7666;DHT22;3875;46.562;4.898;2022-10-28T00:47:16;18.60;88.20
7666;DHT22;3875;46.562;4.898;2022-10-28T00:49:44;18.60;88.40
7666;DHT22;3875;46.562;4.898;2022-10-28T00:52:16;18.60;88.40
7666;DHT22;3875;46.562;4.898;2022-10-28T00:54:44;18.50;88.40
7666;DHT22;3875;46.562;4.898;2022-10-28T00:57:16;18.50;88.60
7666;DHT22;3875;46.562;4.898;2022-10-28T00:59:48;18.50;88.70
7666;DHT22;3875;46.562;4.898;2022-10-28T01:02:15;18.50;88.70
7666;DHT22;3875;46.562;4.898;2022-10-28T01:04:42;18.40;88.80
7666;DHT22;3875;46.562;4.898;2022-10-28T01:07:08;18.40;88.80
7666;DHT22;3875;46.562;4.898;2022-10-28T01:09:35;18.30;89.00
7666;DHT22;3875;46.562;4.898;2022-10-28T01:17:58;18.30;89.10
7666;DHT22;3875;46.562;4.898;2022-10-28T01:21:04;18.30;89.20
7666;DHT22;3875;46.562;4.898;2022-10-28T01:38:00;18.30;89.10
7666;DHT22;3875;46.562;4.898;2022-10-28T01:40:34;18.30;89.10
7666;DHT22;3875;46.562;4.898;2022-10-28T01:43:53;18.30;89.10
7666;DHT22;3875;46.562;4.898;2022-10-28T01:46:19;18.30;89.00
7666;DHT22;3875;46.562;4.898;2022-10-28T01:49:04;18.30;89.10
7666;DHT22;3875;46.562;4.898;2022-10-28T01:52:01;18.30;89.10
7666;DHT22;3875;46.562;4.898;2022-10-28T01:54:28;18.30;89.20
7666;DHT22;3875;46.562;4.898;2022-10-28T01:56:55;18.20;89.30
7666;DHT22;3875;46.562;4.898;2022-10-28T01:59:24;18.20;89.30
7666;DHT22;3875;46.562;4.898;2022-10-28T02:01:51;18.20;89.30
7666;DHT22;3875;46.562;4.898;2022-10-28T02:04:17;18.20;89.30
7666;DHT22;3875;46.562;4.898;2022-10-28T02:06:45;18.20;89.30
7666;DHT22;3875;46.562;4.898;2022-10-28T02:12:23;18.20;89.20
7666;DHT22;3875;46.562;4.898;2022-10-28T02:17:58;18.20;89.20
7666;DHT22;3875;46.562;4.898;2022-10-28T02:23:43;18.10;89.50
7666;DHT22;3875;46.562;4.898;2022-10-28T02:26:33;18.10;89.50
7666;DHT22;3875;46.562;4.898;2022-10-28T02:29:16;18.10;89.40
7666;DHT22;3875;46.562;4.898;2022-10-28T02:31:57;18.10;89.50
7666;DHT22;3875;46.562;4.898;2022-10-28T02:34:30;18.10;89.70
7666;DHT22;3875;46.562;4.898;2022-10-28T02:36:58;18.10;89.70
7666;DHT22;3875;46.562;4.898;2022-10-28T02:39:33;18.20;89.60
7666;DHT22;3875;46.562;4.898;2022-10-28T02:42:07;18.20;89.60
7666;DHT22;3875;46.562;4.898;2022-10-28T02:44:41;18.20;89.50
7666;DHT22;3875;46.562;4.898;2022-10-28T02:47:18;18.20;89.50
7666;DHT22;3875;46.562;4.898;2022-10-28T02:49:48;18.20;89.40
7666;DHT22;3875;46.562;4.898;2022-10-28T02:52:16;18.30;89.20
7666;DHT22;3875;46.562;4.898;2022-10-28T02:54:56;18.30;89.20
7666;DHT22;3875;46.562;4.898;2022-10-28T02:57:27;18.30;89.10
7666;DHT22;3875;46.562;4.898;2022-10-28T02:59:57;18.30;89.20
7666;DHT22;3875;46.562;4.898;2022-10-28T03:02:24;18.40;89.10
7666;DHT22;3875;46.562;4.898;2022-10-28T03:04:50;18.40;89.00
7666;DHT22;3875;46.562;4.898;2022-10-28T03:07:15;18.40;89.00
7666;DHT22;3875;46.562;4.898;2022-10-28T03:09:41;18.40;89.00
7666;DHT22;3875;46.562;4.898;2022-10-28T03:12:07;18.40;89.00
7666;DHT22;3875;46.562;4.898;2022-10-28T03:14:33;18.40;89.00
7666;DHT22;3875;46.562;4.898;2022-10-28T03:16:58;18.40;89.00
7666;DHT22;3875;46.562;4.898;2022-10-28T03:19:24;18.40;89.00
7666;DHT22;3875;46.562;4.898;2022-10-28T03:21:50;18.40;89.00
7666;DHT22;3875;46.562;4.898;2022-10-28T03:24:15;18.30;89.00
7666;DHT22;3875;46.562;4.898;2022-10-28T03:26:41;18.30;89.20
7666;DHT22;3875;46.562;4.898;2022-10-28T03:29:07;18.30;89.20
7666;DHT22;3875;46.562;4.898;2022-10-28T03:31:33;18.30;89.20
7666;DHT22;3875;46.562;4.898;2022-10-28T03:33:58;18.30;89.10
7666;DHT22;3875;46.562;4.898;2022-10-28T03:36:24;18.30;89.10
7666;DHT22;3875;46.562;4.898;2022-10-28T03:38:50;18.30;89.10
7666;DHT22;3875;46.562;4.898;2022-10-28T03:41:15;18.30;89.10
7666;DHT22;3875;46.562;4.898;2022-10-28T03:43:41;18.30;89.10
7666;DHT22;3875;46.562;4.898;2022-10-28T03:46:06;18.40;89.00
7666;DHT22;3875;46.562;4.898;2022-10-28T03:48:32;18.40;89.00
7666;DHT22;3875;46.562;4.898;2022-10-28T03:50:58;18.40;88.90
7666;DHT22;3875;46.562;4.898;2022-10-28T03:53:23;18.40;88.80
7666;DHT22;3875;46.562;4.898;2022-10-28T03:56:00;18.40;88.80
7666;DHT22;3875;46.562;4.898;2022-10-28T03:58:26;18.40;88.80
7666;DHT22;3875;46.562;4.898;2022-10-28T04:00:52;18.40;88.70
7666;DHT22;3875;46.562;4.898;2022-10-28T04:03:20;18.50;88.70
7666;DHT22;3875;46.562;4.898;2022-10-28T04:05:46;18.40;88.70
7666;DHT22;3875;46.562;4.898;2022-10-28T04:08:16;18.40;88.70
7666;DHT22;3875;46.562;4.898;2022-10-28T04:10:42;18.40;88.80
7666;DHT22;3875;46.562;4.898;2022-10-28T04:13:08;18.40;88.80
7666;DHT22;3875;46.562;4.898;2022-10-28T04:15:34;18.50;88.70
7666;DHT22;3875;46.562;4.898;2022-10-28T04:18:00;18.40;88.70
7666;DHT22;3875;46.562;4.898;2022-10-28T04:20:26;18.50;88.70
7666;DHT22;3875;46.562;4.898;2022-10-28T04:22:52;18.40;88.70
7666;DHT22;3875;46.562;4.898;2022-10-28T04:25:20;18.40;88.80
7666;DHT22;3875;46.562;4.898;2022-10-28T04:27:46;18.40;88.70
7666;DHT22;3875;46.562;4.898;2022-10-28T04:30:11;18.40;88.60
7666;DHT22;3875;46.562;4.898;2022-10-28T04:32:42;18.50;88.60
7666;DHT22;3875;46.562;4.898;2022-10-28T04:35:09;18.40;88.50
7666;DHT22;3875;46.562;4.898;2022-10-28T04:37:35;18.40;88.60
7666;DHT22;3875;46.562;4.898;2022-10-28T04:40:01;18.40;88.70
7666;DHT22;3875;46.562;4.898;2022-10-28T04:42:27;18.30;88.80
7666;DHT22;3875;46.562;4.898;2022-10-28T04:44:53;18.30;88.80
7666;DHT22;3875;46.562;4.898;2022-10-28T04:47:18;18.30;88.80
7666;DHT22;3875;46.562;4.898;2022-10-28T04:49:44;18.30;88.70
7666;DHT22;3875;46.562;4.898;2022-10-28T04:52:10;18.30;88.70
7666;DHT22;3875;46.562;4.898;2022-10-28T04:54:36;18.30;88.80
7666;DHT22;3875;46.562;4.898;2022-10-28T04:57:01;18.30;88.80
7666;DHT22;3875;46.562;4.898;2022-10-28T04:59:27;18.30;88.90
7666;DHT22;3875;46.562;4.898;2022-10-28T05:01:53;18.30;89.00
7666;DHT22;3875;46.562;4.898;2022-10-28T05:04:18;18.30;89.00
7666;DHT22;3875;46.562;4.898;2022-10-28T05:06:44;18.30;88.80
7666;DHT22;3875;46.562;4.898;2022-10-28T05:09:10;18.40;88.70
7666;DHT22;3875;46.562;4.898;2022-10-28T05:11:36;18.40;88.70
7666;DHT22;3875;46.562;4.898;2022-10-28T05:14:01;18.40;88.70
7666;DHT22;3875;46.562;4.898;2022-10-28T05:16:27;18.40;88.60
7666;DHT22;3875;46.562;4.898;2022-10-28T05:18:53;18.40;88.40
7666;DHT22;3875;46.562;4.898;2022-10-28T05:21:18;18.40;88.30
7666;DHT22;3875;46.562;4.898;2022-10-28T05:23:44;18.40;88.20
7666;DHT22;3875;46.562;4.898;2022-10-28T05:26:11;18.40;88.20
7666;DHT22;3875;46.562;4.898;2022-10-28T05:28:37;18.40;88.10
7666;DHT22;3875;46.562;4.898;2022-10-28T05:31:03;18.40;88.10
7666;DHT22;3875;46.562;4.898;2022-10-28T05:33:29;18.40;88.10
7666;DHT22;3875;46.562;4.898;2022-10-28T05:35:54;18.40;88.20
7666;DHT22;3875;46.562;4.898;2022-10-28T05:38:22;18.40;88.20
7666;DHT22;3875;46.562;4.898;2022-10-28T05:40:48;18.40;88.30
7666;DHT22;3875;46.562;4.898;2022-10-28T05:43:13;18.30;88.20
7666;DHT22;3875;46.562;4.898;2022-10-28T05:45:39;18.40;88.40
7666;DHT22;3875;46.562;4.898;2022-10-28T05:48:05;18.40;88.40
7666;DHT22;3875;46.562;4.898;2022-10-28T05:50:31;18.40;88.50
7666;DHT22;3875;46.562;4.898;2022-10-28T05:52:57;18.40;88.60
7666;DHT22;3875;46.562;4.898;2022-10-28T05:55:25;18.40;88.40
7666;DHT22;3875;46.562;4.898;2022-10-28T05:57:52;18.40;88.30
7666;DHT22;3875;46.562;4.898;2022-10-28T06:00:21;18.30;88.30
7666;DHT22;3875;46.562;4.898;2022-10-28T06:02:46;18.30;88.40
7666;DHT22;3875;46.562;4.898;2022-10-28T06:05:13;18.30;88.30
7666;DHT22;3875;46.562;4.898;2022-10-28T06:07:39;18.30;88.40
7666;DHT22;3875;46.562;4.898;2022-10-28T06:10:06;18.30;88.40
7666;DHT22;3875;46.562;4.898;2022-10-28T06:12:32;18.20;88.40
7666;DHT22;3875;46.562;4.898;2022-10-28T06:14:58;18.20;88.60
7666;DHT22;3875;46.562;4.898;2022-10-28T06:17:24;18.20;88.80
7666;DHT22;3875;46.562;4.898;2022-10-28T06:19:49;18.20;88.80
7666;DHT22;3875;46.562;4.898;2022-10-28T06:22:15;18.20;88.90
7666;DHT22;3875;46.562;4.898;2022-10-28T06:24:41;18.20;89.00
7666;DHT22;3875;46.562;4.898;2022-10-28T06:27:06;18.20;88.90
7666;DHT22;3875;46.562;4.898;2022-10-28T06:29:33;18.30;88.70
7666;DHT22;3875;46.562;4.898;2022-10-28T06:31:58;18.20;88.60
7666;DHT22;3875;46.562;4.898;2022-10-28T06:34:24;18.30;88.60
7666;DHT22;3875;46.562;4.898;2022-10-28T06:36:50;18.30;88.50
7666;DHT22;3875;46.562;4.898;2022-10-28T06:39:16;18.20;88.70
7666;DHT22;3875;46.562;4.898;2022-10-28T06:41:42;18.20;88.80
7666;DHT22;3875;46.562;4.898;2022-10-28T06:44:08;18.20;88.80
7666;DHT22;3875;46.562;4.898;2022-10-28T06:46:33;18.20;88.90
7666;DHT22;3875;46.562;4.898;2022-10-28T06:48:59;18.20;88.80
7666;DHT22;3875;46.562;4.898;2022-10-28T06:51:28;18.20;88.70
7666;DHT22;3875;46.562;4.898;2022-10-28T06:53:53;18.20;88.70
7666;DHT22;3875;46.562;4.898;2022-10-28T06:56:19;18.30;88.70
7666;DHT22;3875;46.562;4.898;2022-10-28T06:58:49;18.30;88.60
7666;DHT22;3875;46.562;4.898;2022-10-28T07:01:15;18.30;88.60
7666;DHT22;3875;46.562;4.898;2022-10-28T07:03:41;18.30;88.50
7666;DHT22;3875;46.562;4.898;2022-10-28T07:06:06;18.30;88.50
7666;DHT22;3875;46.562;4.898;2022-10-28T07:08:32;18.40;88.50
7666;DHT22;3875;46.562;4.898;2022-10-28T07:10:59;18.40;88.40
7666;DHT22;3875;46.562;4.898;2022-10-28T07:13:25;18.50;88.40
7666;DHT22;3875;46.562;4.898;2022-10-28T07:15:56;18.50;88.10
7666;DHT22;3875;46.562;4.898;2022-10-28T07:18:23;18.50;88.20
7666;DHT22;3875;46.562;4.898;2022-10-28T07:20:49;18.60;88.00
7666;DHT22;3875;46.562;4.898;2022-10-28T07:23:15;18.70;88.00
7666;DHT22;3875;46.562;4.898;2022-10-28T07:25:41;18.80;87.50
7666;DHT22;3875;46.562;4.898;2022-10-28T07:28:06;18.90;87.30
7666;DHT22;3875;46.562;4.898;2022-10-28T07:30:32;18.90;87.10
7666;DHT22;3875;46.562;4.898;2022-10-28T07:32:58;18.90;87.00
7666;DHT22;3875;46.562;4.898;2022-10-28T07:35:26;18.80;87.10
7666;DHT22;3875;46.562;4.898;2022-10-28T07:37:52;18.80;87.20
7666;DHT22;3875;46.562;4.898;2022-10-28T07:40:20;18.80;87.20
7666;DHT22;3875;46.562;4.898;2022-10-28T07:42:46;18.80;87.30
7666;DHT22;3875;46.562;4.898;2022-10-28T07:45:12;18.80;87.20
7666;DHT22;3875;46.562;4.898;2022-10-28T07:47:38;18.80;87.30
7666;DHT22;3875;46.562;4.898;2022-10-28T07:50:05;18.90;87.20
7666;DHT22;3875;46.562;4.898;2022-10-28T07:52:31;18.90;87.00
7666;DHT22;3875;46.562;4.898;2022-10-28T07:54:57;19.00;86.80
7666;DHT22;3875;46.562;4.898;2022-10-28T07:57:23;19.00;86.90
7666;DHT22;3875;46.562;4.898;2022-10-28T07:59:49;19.00;86.90
7666;DHT22;3875;46.562;4.898;2022-10-28T08:02:17;19.00;86.90
7666;DHT22;3875;46.562;4.898;2022-10-28T08:04:43;19.10;87.00
7666;DHT22;3875;46.562;4.898;2022-10-28T08:07:10;19.10;86.80
7666;DHT22;3875;46.562;4.898;2022-10-28T08:09:35;19.10;86.60
7666;DHT22;3875;46.562;4.898;2022-10-28T08:12:01;19.20;86.60
7666;DHT22;3875;46.562;4.898;2022-10-28T08:14:26;19.20;86.40
7666;DHT22;3875;46.562;4.898;2022-10-28T08:16:52;19.30;86.30
7666;DHT22;3875;46.562;4.898;2022-10-28T08:19:18;19.30;86.20
7666;DHT22;3875;46.562;4.898;2022-10-28T08:21:43;19.40;86.00
7666;DHT22;3875;46.562;4.898;2022-10-28T08:24:09;19.40;85.70
7666;DHT22;3875;46.562;4.898;2022-10-28T08:26:35;19.40;85.70
7666;DHT22;3875;46.562;4.898;2022-10-28T08:29:00;19.50;85.70
7666;DHT22;3875;46.562;4.898;2022-10-28T08:31:26;19.50;85.50
7666;DHT22;3875;46.562;4.898;2022-10-28T08:33:52;19.50;85.30
7666;DHT22;3875;46.562;4.898;2022-10-28T08:36:17;19.50;85.50
7666;DHT22;3875;46.562;4.898;2022-10-28T08:38:44;19.60;85.40
7666;DHT22;3875;46.562;4.898;2022-10-28T08:41:36;19.60;85.00
7666;DHT22;3875;46.562;4.898;2022-10-28T08:47:26;19.80;84.80
7666;DHT22;3875;46.562;4.898;2022-10-28T08:49:57;19.90;84.60
7666;DHT22;3875;46.562;4.898;2022-10-28T08:52:38;20.10;84.50
7666;DHT22;3875;46.562;4.898;2022-10-28T08:55:14;20.10;84.10
7666;DHT22;3875;46.562;4.898;2022-10-28T09:00:30;20.00;84.20
7666;DHT22;3875;46.562;4.898;2022-10-28T09:03:18;20.00;84.20
7666;DHT22;3875;46.562;4.898;2022-10-28T09:05:48;19.90;84.40
7666;DHT22;3875;46.562;4.898;2022-10-28T09:08:23;19.80;84.80
7666;DHT22;3875;46.562;4.898;2022-10-28T09:18:57;19.70;85.30
7666;DHT22;3875;46.562;4.898;2022-10-28T09:21:40;19.70;85.20
7666;DHT22;3875;46.562;4.898;2022-10-28T09:24:36;19.80;85.30
7666;DHT22;3875;46.562;4.898;2022-10-28T09:35:30;19.90;83.10
7666;DHT22;3875;46.562;4.898;2022-10-28T09:40:49;20.20;82.90
7666;DHT22;3875;46.562;4.898;2022-10-28T09:45:45;20.40;82.00
7666;DHT22;3875;46.562;4.898;2022-10-28T09:48:18;20.40;81.90
7666;DHT22;3875;46.562;4.898;2022-10-28T09:50:45;20.50;81.80
7666;DHT22;3875;46.562;4.898;2022-10-28T09:55:51;20.60;81.50
7666;DHT22;3875;46.562;4.898;2022-10-28T09:58:17;20.60;81.70
7666;DHT22;3875;46.562;4.898;2022-10-28T10:00:44;20.60;81.50
7666;DHT22;3875;46.562;4.898;2022-10-28T10:03:09;20.60;81.80
7666;DHT22;3875;46.562;4.898;2022-10-28T10:05:39;20.70;81.60
7666;DHT22;3875;46.562;4.898;2022-10-28T10:08:11;20.70;81.60
7666;DHT22;3875;46.562;4.898;2022-10-28T10:13:05;20.60;81.40
7666;DHT22;3875;46.562;4.898;2022-10-28T10:15:37;20.60;81.70
7666;DHT22;3875;46.562;4.898;2022-10-28T10:18:06;20.70;81.60
7666;DHT22;3875;46.562;4.898;2022-10-28T10:20:51;20.80;81.00
7666;DHT22;3875;46.562;4.898;2022-10-28T10:23:29;21.00;80.90
7666;DHT22;3875;46.562;4.898;2022-10-28T10:26:02;21.20;80.50
7666;DHT22;3875;46.562;4.898;2022-10-28T10:28:29;21.40;80.20
7666;DHT22;3875;46.562;4.898;2022-10-28T10:31:00;21.60;80.20
7666;DHT22;3875;46.562;4.898;2022-10-28T10:33:31;21.80;79.90
7666;DHT22;3875;46.562;4.898;2022-10-28T10:36:02;21.80;79.40
7666;DHT22;3875;46.562;4.898;2022-10-28T10:38:29;21.80;79.70
7666;DHT22;3875;46.562;4.898;2022-10-28T10:40:55;21.80;79.60
7666;DHT22;3875;46.562;4.898;2022-10-28T10:43:34;21.80;79.20
7666;DHT22;3875;46.562;4.898;2022-10-28T10:46:14;21.90;79.60
7666;DHT22;3875;46.562;4.898;2022-10-28T10:48:41;22.10;79.30
7666;DHT22;3875;46.562;4.898;2022-10-28T10:51:15;22.30;78.50
7666;DHT22;3875;46.562;4.898;2022-10-28T10:53:47;22.20;78.60
7666;DHT22;3875;46.562;4.898;2022-10-28T10:56:31;22.10;78.80
7666;DHT22;3875;46.562;4.898;2022-10-28T10:59:02;22.00;79.00
7666;DHT22;3875;46.562;4.898;2022-10-28T11:01:35;21.90;79.30
7666;DHT22;3875;46.562;4.898;2022-10-28T11:04:05;21.90;79.60
7666;DHT22;3875;46.562;4.898;2022-10-28T11:06:35;21.80;79.50
7666;DHT22;3875;46.562;4.898;2022-10-28T11:09:16;21.80;79.70
7666;DHT22;3875;46.562;4.898;2022-10-28T11:11:42;21.90;79.70
7666;DHT22;3875;46.562;4.898;2022-10-28T11:16:50;22.50;79.00
7666;DHT22;3875;46.562;4.898;2022-10-28T11:19:30;23.00;77.60
7666;DHT22;3875;46.562;4.898;2022-10-28T11:29:58;22.60;77.80
7666;DHT22;3875;46.562;4.898;2022-10-28T11:43:45;23.60;75.50
7666;DHT22;3875;46.562;4.898;2022-10-28T11:46:16;23.30;75.80
7666;DHT22;3875;46.562;4.898;2022-10-28T11:49:01;23.50;76.40
7666;DHT22;3875;46.562;4.898;2022-10-28T11:51:57;23.60;75.80
7666;DHT22;3875;46.562;4.898;2022-10-28T11:54:44;23.70;74.90
7666;DHT22;3875;46.562;4.898;2022-10-28T11:57:16;23.60;75.30
7666;DHT22;3875;46.562;4.898;2022-10-28T12:11:21;24.20;73.70
7666;DHT22;3875;46.562;4.898;2022-10-28T12:14:04;24.30;73.60
7666;DHT22;3875;46.562;4.898;2022-10-28T12:19:31;24.70;72.80
7666;DHT22;3875;46.562;4.898;2022-10-28T12:22:12;24.90;72.30
7666;DHT22;3875;46.562;4.898;2022-10-28T12:24:41;25.00;72.30
7666;DHT22;3875;46.562;4.898;2022-10-28T12:27:33;25.10;71.70
7666;DHT22;3875;46.562;4.898;2022-10-28T12:30:14;25.20;71.30
7666;DHT22;3875;46.562;4.898;2022-10-28T12:32:42;25.30;71.80
7666;DHT22;3875;46.562;4.898;2022-10-28T12:35:23;25.40;71.90
7666;DHT22;3875;46.562;4.898;2022-10-28T12:38:05;25.50;70.40
7666;DHT22;3875;46.562;4.898;2022-10-28T12:40:42;25.60;69.90
7666;DHT22;3875;46.562;4.898;2022-10-28T12:43:21;25.60;68.60
7666;DHT22;3875;46.562;4.898;2022-10-28T12:45:52;25.60;68.30
7666;DHT22;3875;46.562;4.898;2022-10-28T12:48:37;25.60;67.50
7666;DHT22;3875;46.562;4.898;2022-10-28T12:53:48;25.70;67.20
7666;DHT22;3875;46.562;4.898;2022-10-28T12:56:30;25.70;67.90
7666;DHT22;3875;46.562;4.898;2022-10-28T12:59:05;25.70;66.00
7666;DHT22;3875;46.562;4.898;2022-10-28T13:01:35;25.70;66.80
7666;DHT22;3875;46.562;4.898;2022-10-28T13:04:01;25.60;66.30
7666;DHT22;3875;46.562;4.898;2022-10-28T13:20:39;25.30;67.80
7666;DHT22;3875;46.562;4.898;2022-10-28T13:26:16;25.60;68.10
7666;DHT22;3875;46.562;4.898;2022-10-28T13:28:47;25.80;67.90
7666;DHT22;3875;46.562;4.898;2022-10-28T13:31:14;25.90;67.90
7666;DHT22;3875;46.562;4.898;2022-10-28T13:33:53;25.90;67.30
7666;DHT22;3875;46.562;4.898;2022-10-28T13:38:59;25.80;67.30
7666;DHT22;3875;46.562;4.898;2022-10-28T13:49:34;25.50;67.20
7666;DHT22;3875;46.562;4.898;2022-10-28T13:59:48;25.40;67.80
7666;DHT22;3875;46.562;4.898;2022-10-28T14:04:55;25.30;68.90
7666;DHT22;3875;46.562;4.898;2022-10-28T14:07:25;25.20;69.20
7666;DHT22;3875;46.562;4.898;2022-10-28T14:09:56;25.20;68.90
7666;DHT22;3875;46.562;4.898;2022-10-28T14:12:30;25.10;68.70
7666;DHT22;3875;46.562;4.898;2022-10-28T14:15:03;25.10;68.90
7666;DHT22;3875;46.562;4.898;2022-10-28T14:17:38;25.00;68.60
7666;DHT22;3875;46.562;4.898;2022-10-28T14:20:17;25.00;68.90
7666;DHT22;3875;46.562;4.898;2022-10-28T14:22:44;24.90;68.40
7666;DHT22;3875;46.562;4.898;2022-10-28T14:33:37;24.80;68.50
7666;DHT22;3875;46.562;4.898;2022-10-28T14:50:16;24.70;69.50
7666;DHT22;3875;46.562;4.898;2022-10-28T14:52:45;24.60;69.80
7666;DHT22;3875;46.562;4.898;2022-10-28T14:55:24;24.70;69.70
7666;DHT22;3875;46.562;4.898;2022-10-28T14:57:50;24.70;69.70
7666;DHT22;3875;46.562;4.898;2022-10-28T15:00:19;24.70;70.10
7666;DHT22;3875;46.562;4.898;2022-10-28T15:02:45;24.70;69.50
7666;DHT22;3875;46.562;4.898;2022-10-28T15:07:41;24.60;69.40
7666;DHT22;3875;46.562;4.898;2022-10-28T15:10:24;24.60;69.70
7666;DHT22;3875;46.562;4.898;2022-10-28T15:12:52;24.60;70.00
7666;DHT22;3875;46.562;4.898;2022-10-28T15:15:23;24.60;70.00
7666;DHT22;3875;46.562;4.898;2022-10-28T15:17:50;24.60;70.40
7666;DHT22;3875;46.562;4.898;2022-10-28T15:20:27;24.60;70.60
7666;DHT22;3875;46.562;4.898;2022-10-28T15:23:20;24.70;70.90
7666;DHT22;3875;46.562;4.898;2022-10-28T15:26:13;24.70;71.10
7666;DHT22;3875;46.562;4.898;2022-10-28T15:28:40;24.60;71.10
7666;DHT22;3875;46.562;4.898;2022-10-28T15:31:07;24.40;71.60
7666;DHT22;3875;46.562;4.898;2022-10-28T15:33:38;24.30;71.70
7666;DHT22;3875;46.562;4.898;2022-10-28T15:38:43;24.10;72.30
7666;DHT22;3875;46.562;4.898;2022-10-28T15:41:41;24.00;72.60
7666;DHT22;3875;46.562;4.898;2022-10-28T15:44:32;23.90;73.10
7666;DHT22;3875;46.562;4.898;2022-10-28T15:46:59;23.80;73.40
7666;DHT22;3875;46.562;4.898;2022-10-28T15:52:20;23.60;74.00
7666;DHT22;3875;46.562;4.898;2022-10-28T15:54:57;23.50;74.40
7666;DHT22;3875;46.562;4.898;2022-10-28T15:57:45;23.40;74.70
7666;DHT22;3875;46.562;4.898;2022-10-28T16:02:54;23.20;75.40
7666;DHT22;3875;46.562;4.898;2022-10-28T16:08:04;23.00;76.00
7666;DHT22;3875;46.562;4.898;2022-10-28T16:10:42;22.90;76.10
7666;DHT22;3875;46.562;4.898;2022-10-28T16:13:23;22.80;76.50
7666;DHT22;3875;46.562;4.898;2022-10-28T16:15:54;22.70;76.70
7666;DHT22;3875;46.562;4.898;2022-10-28T16:18:22;22.60;76.90
7666;DHT22;3875;46.562;4.898;2022-10-28T16:20:48;22.60;77.10
7666;DHT22;3875;46.562;4.898;2022-10-28T16:23:20;22.50;77.30
7666;DHT22;3875;46.562;4.898;2022-10-28T16:25:46;22.40;77.40
7666;DHT22;3875;46.562;4.898;2022-10-28T16:28:24;22.30;77.50
7666;DHT22;3875;46.562;4.898;2022-10-28T16:30:52;22.20;77.60
7666;DHT22;3875;46.562;4.898;2022-10-28T16:33:30;22.10;77.80
7666;DHT22;3875;46.562;4.898;2022-10-28T16:35:57;22.00;78.20
7666;DHT22;3875;46.562;4.898;2022-10-28T16:38:23;21.90;78.30
7666;DHT22;3875;46.562;4.898;2022-10-28T16:40:49;21.70;78.70
7666;DHT22;3875;46.562;4.898;2022-10-28T16:43:18;21.60;79.00
7666;DHT22;3875;46.562;4.898;2022-10-28T16:45:45;21.50;79.20
7666;DHT22;3875;46.562;4.898;2022-10-28T16:48:12;21.40;79.60
7666;DHT22;3875;46.562;4.898;2022-10-28T16:50:39;21.40;79.70
7666;DHT22;3875;46.562;4.898;2022-10-28T16:53:05;21.30;79.80
7666;DHT22;3875;46.562;4.898;2022-10-28T16:55:31;21.20;79.80
7666;DHT22;3875;46.562;4.898;2022-10-28T16:57:57;21.10;79.90
7666;DHT22;3875;46.562;4.898;2022-10-28T17:00:22;21.00;80.10
7666;DHT22;3875;46.562;4.898;2022-10-28T17:02:48;21.00;80.20
7666;DHT22;3875;46.562;4.898;2022-10-28T17:05:21;21.00;80.20
7666;DHT22;3875;46.562;4.898;2022-10-28T17:07:47;20.90;80.40
7666;DHT22;3875;46.562;4.898;2022-10-28T17:10:13;20.90;80.50
7666;DHT22;3875;46.562;4.898;2022-10-28T17:12:39;20.80;80.70
7666;DHT22;3875;46.562;4.898;2022-10-28T17:15:05;20.80;80.80
7666;DHT22;3875;46.562;4.898;2022-10-28T17:17:31;20.80;80.80
7666;DHT22;3875;46.562;4.898;2022-10-28T17:19:57;20.70;80.80
7666;DHT22;3875;46.562;4.898;2022-10-28T17:22:23;20.70;80.80
7666;DHT22;3875;46.562;4.898;2022-10-28T17:24:48;20.60;80.70
7666;DHT22;3875;46.562;4.898;2022-10-28T17:27:14;20.60;80.30
7666;DHT22;3875;46.562;4.898;2022-10-28T17:29:40;20.60;79.80
7666;DHT22;3875;46.562;4.898;2022-10-28T17:32:06;20.60;78.60
7666;DHT22;3875;46.562;4.898;2022-10-28T17:34:33;20.60;77.70
7666;DHT22;3875;46.562;4.898;2022-10-28T17:36:59;20.60;77.20
7666;DHT22;3875;46.562;4.898;2022-10-28T17:39:25;20.70;76.70
7666;DHT22;3875;46.562;4.898;2022-10-28T17:41:50;20.70;76.50
7666;DHT22;3875;46.562;4.898;2022-10-28T17:44:16;20.70;76.30
7666;DHT22;3875;46.562;4.898;2022-10-28T17:46:42;20.70;76.10
7666;DHT22;3875;46.562;4.898;2022-10-28T17:49:07;20.60;75.40
7666;DHT22;3875;46.562;4.898;2022-10-28T17:51:34;20.60;75.40
7666;DHT22;3875;46.562;4.898;2022-10-28T17:54:00;20.60;75.10
7666;DHT22;3875;46.562;4.898;2022-10-28T17:56:25;20.60;75.00
7666;DHT22;3875;46.562;4.898;2022-10-28T17:58:52;20.60;74.60
7666;DHT22;3875;46.562;4.898;2022-10-28T18:01:18;20.60;74.30
7666;DHT22;3875;46.562;4.898;2022-10-28T18:03:48;20.60;74.30
7666;DHT22;3875;46.562;4.898;2022-10-28T18:06:13;20.60;74.20
7666;DHT22;3875;46.562;4.898;2022-10-28T18:08:41;20.60;74.00
7666;DHT22;3875;46.562;4.898;2022-10-28T18:11:08;20.60;74.00
7666;DHT22;3875;46.562;4.898;2022-10-28T18:13:37;20.60;74.10
7666;DHT22;3875;46.562;4.898;2022-10-28T18:16:08;20.60;74.30
7666;DHT22;3875;46.562;4.898;2022-10-28T18:18:34;20.50;74.30
7666;DHT22;3875;46.562;4.898;2022-10-28T18:21:00;20.50;74.50
7666;DHT22;3875;46.562;4.898;2022-10-28T18:23:26;20.50;74.70
7666;DHT22;3875;46.562;4.898;2022-10-28T18:26:03;20.40;74.70
7666;DHT22;3875;46.562;4.898;2022-10-28T18:28:30;20.40;74.80
7666;DHT22;3875;46.562;4.898;2022-10-28T18:31:04;20.40;74.90
7666;DHT22;3875;46.562;4.898;2022-10-28T18:33:33;20.30;74.90
7666;DHT22;3875;46.562;4.898;2022-10-28T18:36:00;20.20;75.10
7666;DHT22;3875;46.562;4.898;2022-10-28T18:38:26;20.20;75.40
7666;DHT22;3875;46.562;4.898;2022-10-28T18:40:52;20.10;75.50
7666;DHT22;3875;46.562;4.898;2022-10-28T18:43:18;20.10;75.70
7666;DHT22;3875;46.562;4.898;2022-10-28T18:45:46;20.10;75.90
7666;DHT22;3875;46.562;4.898;2022-10-28T18:48:11;20.00;75.80
7666;DHT22;3875;46.562;4.898;2022-10-28T18:50:37;20.00;75.40
7666;DHT22;3875;46.562;4.898;2022-10-28T18:53:03;20.00;74.90
7666;DHT22;3875;46.562;4.898;2022-10-28T18:55:29;20.10;75.20
7666;DHT22;3875;46.562;4.898;2022-10-28T18:57:55;20.00;75.10
7666;DHT22;3875;46.562;4.898;2022-10-28T19:00:20;20.00;75.10
7666;DHT22;3875;46.562;4.898;2022-10-28T19:02:46;20.00;74.90
7666;DHT22;3875;46.562;4.898;2022-10-28T19:05:12;20.00;74.80
7666;DHT22;3875;46.562;4.898;2022-10-28T19:07:37;20.00;74.70
7666;DHT22;3875;46.562;4.898;2022-10-28T19:10:04;20.00;74.60
7666;DHT22;3875;46.562;4.898;2022-10-28T19:12:30;20.00;74.40
7666;DHT22;3875;46.562;4.898;2022-10-28T19:14:56;20.00;74.20